Terminal Aerodrome Forecast
Issued by NWS Missoula, MT

Home | Current Version | Previous Version | Text Only | Print | Product List | Glossary On
Versions: 1 2 3 4 5 6 7 8 9 10 11 12 13 14 15
078
FTUS45 KMSO 260539
TAFMSO
TAF
KMSO 260539Z 2606/2706 VRB05KT P6SM VCSH BKN045 OVC060
     FM261230 VRB04KT 5SM -RA FEW010 BKN025 OVC030
     FM261600 30005KT P6SM VCSH SCT025 BKN040
     FM262000 30014G20KT P6SM VCSH SCT050
     FM270300 VRB05KT P6SM VCSH BKN040=

USA.gov is the U.S. government's official web portal to all federal, state and local government web resources and services.